Time;durP1;ratioP1;P1;durP2;ratioP2;P2;SDS_P1;SDS_P2;PMS_P1;PMS_P2;Temp;Humidity;BMP_temperature;BMP_pressure;BME280_temperature;BME280_humidity;BME280_pressure;Samples;Min_cycle;Max_cycle;Signal;HPM_P1;HPM_P2
2021/01/03 00:02:12;;;;;;;3.50;1.70;;;;;;;9.82;71.46;99701.00;5083585;28;20044;-78
2021/01/03 00:04:40;;;;;;;2.55;1.25;;;;;;;9.80;70.92;99697.81;5066118;28;20062;-78
2021/01/03 00:07:06;;;;;;;6.03;1.60;;;;;;;9.85;70.33;99694.69;5062701;28;20036;-79
2021/01/03 00:09:34;;;;;;;8.05;1.83;;;;;;;9.78;70.39;99697.34;5063460;28;20451;-78
2021/01/03 00:12:02;;;;;;;3.97;1.40;;;;;;;9.77;69.89;99700.50;5063366;28;20031;-78
2021/01/03 00:14:31;;;;;;;4.63;1.15;;;;;;;9.82;69.48;99701.00;5044254;28;20061;-78
2021/01/03 00:17:00;;;;;;;4.03;1.38;;;;;;;9.78;69.75;99700.13;5059467;28;20029;-79
2021/01/03 00:19:28;;;;;;;7.30;2.65;;;;;;;9.80;69.17;99708.09;5059796;28;20037;-78
2021/01/03 00:21:57;;;;;;;4.43;1.67;;;;;;;9.81;68.88;99701.38;5061821;28;20047;-78
2021/01/03 00:24:22;;;;;;;3.83;1.30;;;;;;;9.77;68.06;99697.75;5060170;28;20029;-78
2021/01/03 00:26:49;;;;;;;1.20;1.20;;;;;;;9.76;68.12;99702.50;5059796;28;20060;-78
2021/01/03 00:29:18;;;;;;;1.70;0.98;;;;;;;9.83;68.20;99697.06;5058530;28;20072;-78
2021/01/03 00:31:46;;;;;;;5.82;1.67;;;;;;;9.79;67.61;99704.53;5059333;28;20040;-79
2021/01/03 00:34:12;;;;;;;4.65;2.17;;;;;;;9.75;68.37;99700.91;5057679;28;20116;-79
2021/01/03 00:36:37;;;;;;;3.40;1.20;;;;;;;9.85;68.13;99703.03;5061300;28;20563;-79
2021/01/03 00:39:04;;;;;;;1.48;0.90;;;;;;;9.94;69.46;99705.59;5060234;28;20033;-78
2021/01/03 00:41:33;;;;;;;6.60;1.38;;;;;;;9.96;70.41;99709.63;5061637;28;20026;-78
2021/01/03 00:44:00;;;;;;;5.28;1.27;;;;;;;10.00;70.79;99715.22;5041725;28;20026;-78
2021/01/03 00:46:29;;;;;;;5.40;1.27;;;;;;;9.94;72.25;99714.72;5056014;28;20029;-79
2021/01/03 00:48:55;;;;;;;8.15;1.20;;;;;;;9.96;72.30;99723.50;5056823;28;20442;-78
2021/01/03 00:51:24;;;;;;;2.50;1.00;;;;;;;10.00;72.46;99726.34;5055859;28;20037;-78
2021/01/03 00:53:53;;;;;;;5.97;1.55;;;;;;;9.98;72.23;99723.94;5056865;28;20480;-78
2021/01/03 00:56:19;;;;;;;6.25;1.40;;;;;;;9.88;73.01;99721.75;5057963;28;20021;-79
2021/01/03 00:58:44;;;;;;;4.97;1.42;;;;;;;9.87;72.93;99725.72;5057608;28;20029;-78
2021/01/03 01:01:10;;;;;;;8.05;1.77;;;;;;;9.82;73.14;99714.09;5057575;28;20380;-78
2021/01/03 01:03:38;;;;;;;4.43;1.20;;;;;;;9.67;73.00;99713.03;5058687;28;20120;-78
2021/01/03 01:06:03;;;;;;;6.82;1.60;;;;;;;9.76;71.85;99718.38;5057069;28;20052;-78
2021/01/03 01:08:29;;;;;;;2.67;0.90;;;;;;;9.75;70.86;99717.56;5057739;28;20032;-77
2021/01/03 01:10:54;;;;;;;6.80;1.88;;;;;;;9.63;71.45;99728.81;5058272;28;20029;-78
2021/01/03 01:13:20;;;;;;;8.52;1.45;;;;;;;9.57;71.53;99721.97;5058767;28;20049;-78
2021/01/03 01:15:46;;;;;;;3.38;1.30;;;;;;;9.59;71.43;99725.19;5059967;28;20053;-75
2021/01/03 01:18:13;;;;;;;2.88;1.05;;;;;;;9.43;72.54;99723.31;5059505;28;20033;-78
2021/01/03 01:20:45;;;;;;;4.35;1.33;;;;;;;9.53;71.91;99729.41;5059706;28;20080;-78
2021/01/03 01:23:15;;;;;;;6.00;1.38;;;;;;;9.48;72.71;99724.16;5059529;28;20057;-78
2021/01/03 01:25:47;;;;;;;4.10;1.20;;;;;;;9.35;73.13;99738.19;5059465;28;20022;-78
2021/01/03 01:28:13;;;;;;;4.70;1.35;;;;;;;9.31;73.25;99748.41;5059463;28;20021;-76
2021/01/03 01:30:39;;;;;;;6.97;1.63;;;;;;;9.40;73.81;99756.53;5060120;28;20025;-79
2021/01/03 01:33:08;;;;;;;4.85;1.48;;;;;;;9.31;73.96;99756.75;5059624;28;20041;-78
2021/01/03 01:35:34;;;;;;;3.42;1.40;;;;;;;9.34;73.67;99749.69;5059593;28;20025;-79
2021/01/03 01:38:01;;;;;;;3.65;1.33;;;;;;;9.34;73.92;99744.91;5060149;28;20055;-78
2021/01/03 01:40:37;;;;;;;9.27;1.83;;;;;;;9.33;74.00;99754.44;5059505;28;20026;-78
2021/01/03 01:43:04;;;;;;;7.15;1.58;;;;;;;9.28;74.80;99746.38;5055554;28;20025;-79
2021/01/03 01:45:33;;;;;;;4.05;1.10;;;;;;;9.33;74.42;99748.88;5038335;28;20101;-79
2021/01/03 01:48:19;;;;;;;3.45;1.00;;;;;;;9.30;74.42;99743.25;5060918;28;20033;-78
2021/01/03 01:51:00;;;;;;;3.35;1.27;;;;;;;9.28;74.52;99754.72;5046065;28;20057;-79
2021/01/03 01:53:46;;;;;;;6.85;1.20;;;;;;;9.25;74.56;99747.09;5058830;28;20053;-78
2021/01/03 01:56:40;;;;;;;1.48;0.60;;;;;;;9.24;74.53;99764.94;5059851;28;20029;-78
2021/01/03 01:59:24;;;;;;;5.97;1.20;;;;;;;9.27;74.41;99753.13;5043384;28;20036;-74
2021/01/03 02:01:55;;;;;;;;;;;;;;;9.19;74.35;99762.44;5059984;28;20026;-78
2021/01/03 02:04:30;;;;;;;6.45;1.48;;;;;;;9.02;73.54;99708.16;5042845;28;19922;-78
2021/01/03 02:07:21;;;;;;;5.50;1.73;;;;;;;9.58;72.39;99748.56;5059728;28;20121;-79
2021/01/03 02:09:59;;;;;;;5.03;2.13;;;;;;;9.51;72.18;99740.09;5064544;28;20037;-79
2021/01/03 02:12:38;;;;;;;3.20;1.70;;;;;;;9.37;72.48;99735.84;5063242;28;20033;-78
2021/01/03 02:15:10;;;;;;;5.93;2.13;;;;;;;9.20;73.03;99736.28;5060542;28;20036;-79
2021/01/03 02:17:35;;;;;;;5.10;2.67;;;;;;;9.03;74.30;99748.63;5079294;28;20487;-78
2021/01/03 02:20:01;;;;;;;8.13;2.80;;;;;;;9.05;75.85;99756.56;5063766;28;20078;-78
2021/01/03 02:22:41;;;;;;;5.35;2.40;;;;;;;8.90;76.16;99749.94;5065006;28;20123;-78
2021/01/03 02:25:13;;;;;;;9.55;2.67;;;;;;;8.93;75.78;99747.22;5064206;28;20109;-78
2021/01/03 02:27:58;;;;;;;11.77;3.13;;;;;;;8.91;76.63;99745.97;5083432;28;20090;-79
2021/01/03 02:30:25;;;;;;;7.30;2.55;;;;;;;8.86;76.43;99749.84;5066259;28;20034;-79
2021/01/03 02:33:11;;;;;;;4.25;2.50;;;;;;;8.82;76.18;99742.59;5069431;28;20024;-79
2021/01/03 02:35:42;;;;;;;5.45;2.10;;;;;;;8.73;76.71;99756.66;5068595;28;20032;-79
2021/01/03 02:38:12;;;;;;;4.63;2.00;;;;;;;8.73;77.77;99756.66;5070157;28;20050;-79
2021/01/03 02:40:38;;;;;;;7.97;2.30;;;;;;;8.69;77.15;99752.22;5068819;28;20028;-79
2021/01/03 02:43:04;;;;;;;5.20;1.45;;;;;;;8.63;77.19;99749.72;5069723;28;20031;-78
2021/01/03 02:45:33;;;;;;;5.97;2.10;;;;;;;8.70;76.65;99737.97;5070015;28;20028;-78
2021/01/03 02:48:13;;;;;;;2.85;2.28;;;;;;;8.69;76.76;99733.59;5087573;28;20027;-78
2021/01/03 02:50:41;;;;;;;6.13;2.63;;;;;;;8.66;77.67;99734.31;5069174;28;20028;-79
2021/01/03 02:53:08;;;;;;;6.20;2.58;;;;;;;8.65;77.48;99738.25;5070063;28;20028;-78
2021/01/03 02:55:34;;;;;;;11.40;3.45;;;;;;;8.60;77.99;99735.75;5070114;28;20085;-79
2021/01/03 02:58:00;;;;;;;9.48;2.97;;;;;;;8.63;78.30;99730.28;5069355;28;20062;-79
2021/01/03 03:00:29;;;;;;;7.03;2.92;;;;;;;8.63;77.80;99738.63;5069764;28;20032;-78
2021/01/03 03:02:54;;;;;;;8.45;3.28;;;;;;;8.53;77.91;99738.38;5069434;28;20052;-78
2021/01/03 03:05:21;;;;;;;5.32;2.72;;;;;;;8.60;77.80;99735.75;5070804;28;20065;-79
2021/01/03 03:07:47;;;;;;;6.75;2.35;;;;;;;8.52;78.29;99731.19;5071503;28;20024;-78
2021/01/03 03:10:14;;;;;;;5.53;2.85;;;;;;;8.57;78.46;99737.25;5070225;28;20550;-78
2021/01/03 03:12:40;;;;;;;5.47;2.70;;;;;;;8.43;78.38;99716.72;5068092;28;20031;-78
2021/01/03 03:15:08;;;;;;;9.70;3.05;;;;;;;8.52;78.52;99739.50;5068025;28;20479;-78
2021/01/03 03:17:34;;;;;;;8.98;3.05;;;;;;;8.50;78.97;99726.00;5068698;28;20033;-78
2021/01/03 03:20:03;;;;;;;6.32;3.05;;;;;;;8.45;78.58;99723.50;5068700;28;20024;-78
2021/01/03 03:22:29;;;;;;;17.65;4.63;;;;;;;8.47;78.57;99728.69;5069290;28;20046;-78
2021/01/03 03:24:57;;;;;;;11.75;3.83;;;;;;;8.44;78.53;99729.44;5068872;28;20025;-78
2021/01/03 03:27:23;;;;;;;6.45;3.25;;;;;;;8.44;78.59;99737.75;5068452;28;20104;-79
2021/01/03 03:29:51;;;;;;;11.13;4.13;;;;;;;8.45;78.86;99731.03;5068954;28;20056;-78
2021/01/03 03:32:17;;;;;;;10.23;4.03;;;;;;;8.45;79.46;99725.47;5068848;28;20370;-79
2021/01/03 03:34:43;;;;;;;5.15;2.80;;;;;;;8.39;79.42;99722.97;5069063;28;20036;-79
2021/01/03 03:37:08;;;;;;;5.35;2.97;;;;;;;8.38;79.58;99718.59;5068830;28;20025;-76
2021/01/03 03:39:34;;;;;;;5.78;2.55;;;;;;;8.36;79.67;99717.34;5085616;28;20020;-78
2021/01/03 03:42:01;;;;;;;11.70;4.03;;;;;;;8.34;80.00;99717.69;5068014;28;20029;-79
2021/01/03 03:44:28;;;;;;;8.57;3.22;;;;;;;8.30;80.09;99711.22;5068578;28;20024;-78
2021/01/03 03:46:56;;;;;;;5.90;2.80;;;;;;;8.29;80.07;99708.84;5068184;28;20029;-78
2021/01/03 03:49:24;;;;;;;3.67;2.53;;;;;;;8.25;79.30;99708.72;5085302;28;20097;-79
2021/01/03 03:51:54;;;;;;;13.23;2.47;;;;;;;8.30;78.52;99715.97;5069154;28;20483;-78
2021/01/03 03:54:20;;;;;;;6.43;2.90;;;;;;;8.27;78.63;99711.97;5069166;28;20475;-78
2021/01/03 03:56:55;;;;;;;12.55;4.15;;;;;;;8.29;77.97;99717.94;5069538;28;20421;-79
2021/01/03 03:59:21;;;;;;;7.03;3.20;;;;;;;8.26;77.42;99710.38;5085783;28;20037;-78
2021/01/03 04:01:47;;;;;;;4.22;3.25;;;;;;;8.42;73.02;99710.38;5071192;28;20025;-80
2021/01/03 04:04:14;;;;;;;3.72;1.30;;;;;;;8.49;70.81;99718.06;5069371;28;20032;-79
2021/01/03 04:06:40;;;;;;;2.30;0.95;;;;;;;8.59;68.90;99717.50;5066632;28;20040;-78
2021/01/03 04:09:07;;;;;;;2.60;0.77;;;;;;;8.62;68.99;99711.22;5067688;28;20024;-78
2021/01/03 04:11:33;;;;;;;1.90;1.55;;;;;;;8.61;68.51;99717.94;5068026;28;20032;-79
2021/01/03 04:14:01;;;;;;;6.18;1.67;;;;;;;8.58;68.59;99716.72;5067098;28;20048;-78
2021/01/03 04:16:27;;;;;;;1.58;1.00;;;;;;;8.56;67.78;99712.66;5068319;28;20058;-78
2021/01/03 04:18:57;;;;;;;1.25;0.77;;;;;;;8.54;68.27;99710.28;5068201;28;20091;-78
2021/01/03 04:21:23;;;;;;;2.80;1.13;;;;;;;8.59;67.52;99707.22;5067003;28;20031;-78
2021/01/03 04:23:48;;;;;;;1.65;0.85;;;;;;;8.71;66.84;99709.06;5066401;28;20036;-78
2021/01/03 04:26:20;;;;;;;1.85;0.63;;;;;;;8.77;66.98;99704.84;5066083;28;20028;-78
2021/01/03 04:28:47;;;;;;;3.72;1.02;;;;;;;8.92;67.71;99709.53;5066564;28;20037;-78
2021/01/03 04:31:18;;;;;;;2.70;1.08;;;;;;;8.85;68.53;99711.38;5067157;28;20055;-78
2021/01/03 04:33:46;;;;;;;3.63;1.13;;;;;;;8.97;68.61;99713.19;5068146;28;20028;-78
2021/01/03 04:36:18;;;;;;;0.98;0.88;;;;;;;8.87;69.64;99700.69;5086911;28;20092;-79
2021/01/03 04:38:44;;;;;;;2.90;1.10;;;;;;;8.94;70.41;99700.84;5066695;28;20035;-78
2021/01/03 04:41:27;;;;;;;1.15;0.90;;;;;;;8.98;71.21;99712.03;5064719;28;20032;-77
2021/01/03 04:43:59;;;;;;;4.15;1.02;;;;;;;8.96;71.62;99711.59;5081458;28;20032;-77
2021/01/03 04:46:26;;;;;;;1.45;0.80;;;;;;;9.10;71.01;99703.56;5065033;28;20024;-77
2021/01/03 04:49:02;;;;;;;3.20;0.80;;;;;;;9.06;70.89;99702.69;5064334;28;20033;-78
2021/01/03 04:51:44;;;;;;;5.75;1.45;;;;;;;9.04;71.20;99710.56;5065161;28;20028;-77
2021/01/03 04:54:17;;;;;;;3.50;1.05;;;;;;;9.02;71.29;99712.91;5081518;28;20025;-78
2021/01/03 04:56:43;;;;;;;4.00;1.23;;;;;;;9.06;70.98;99714.59;5065514;28;20074;-77
2021/01/03 04:59:35;;;;;;;5.85;1.00;;;;;;;9.09;69.16;99711.09;5081561;28;20433;-78
2021/01/03 05:02:45;;;;;;;1.75;0.90;;;;;;;9.02;69.66;99713.72;5055796;28;20036;-77
2021/01/03 05:05:17;;;;;;;3.92;1.13;;;;;;;9.03;69.98;99728.41;5060675;28;20070;-78
2021/01/03 05:07:58;;;;;;;2.65;0.70;;;;;;;8.90;69.96;99714.66;5081159;28;20029;-77
2021/01/03 05:10:26;;;;;;;1.48;0.93;;;;;;;8.84;70.16;99721.66;5082719;28;20540;-78
2021/01/03 05:13:15;;;;;;;6.47;1.80;;;;;;;8.61;70.76;99698.53;5058195;28;20117;-77
2021/01/03 05:15:43;;;;;;;4.03;0.85;;;;;;;8.66;71.13;99723.22;5058498;28;20052;-78
2021/01/03 05:18:09;;;;;;;2.38;0.70;;;;;;;8.66;71.25;99724.00;5058679;28;20040;-78
2021/01/03 05:20:35;;;;;;;6.47;0.77;;;;;;;8.66;71.36;99728.75;5058418;28;20376;-77
2021/01/03 05:23:29;;;;;;;1.67;0.70;;;;;;;8.63;71.72;99740.59;5059312;28;20416;-79
2021/01/03 05:25:55;;;;;;;0.80;0.60;;;;;;;8.61;72.31;99743.69;5041050;28;20037;-78
2021/01/03 05:28:33;;;;;;;7.00;1.00;;;;;;;8.59;71.66;99739.69;5058893;28;20034;-77
2021/01/03 05:31:22;;;;;;;5.20;0.98;;;;;;;8.63;71.91;99740.59;5058862;28;20036;-78
2021/01/03 05:33:55;;;;;;;2.53;0.80;;;;;;;8.46;72.45;99721.53;5059192;28;20107;-78
2021/01/03 05:36:45;;;;;;;3.37;1.00;;;;;;;8.55;72.25;99747.13;5060638;28;20109;-78
2021/01/03 05:39:22;;;;;;;1.40;0.90;;;;;;;8.50;72.66;99747.38;5059727;28;20049;-78
2021/01/03 05:41:47;;;;;;;2.67;0.90;;;;;;;8.55;72.14;99753.47;5057070;28;20041;-78
2021/01/03 05:44:25;;;;;;;3.47;0.70;;;;;;;8.64;71.95;99753.28;5056727;28;20052;-79
2021/01/03 05:47:01;;;;;;;3.50;0.98;;;;;;;8.61;72.24;99749.25;5058263;28;20036;-78
2021/01/03 05:49:27;;;;;;;3.08;0.77;;;;;;;8.62;71.58;99750.84;5057224;28;20082;-79
2021/01/03 05:52:05;;;;;;;5.18;1.20;;;;;;;8.44;71.09;99729.44;5057350;28;20072;-78
2021/01/03 05:54:35;;;;;;;4.63;1.00;;;;;;;8.72;70.95;99759.78;5057411;28;20113;-79
2021/01/03 05:57:06;;;;;;;6.30;2.13;;;;;;;8.65;70.70;99768.75;5041464;28;20030;-78
2021/01/03 05:59:34;;;;;;;3.58;1.98;;;;;;;8.64;70.41;99758.84;5057227;28;20033;-80
2021/01/03 06:02:20;;;;;;;11.70;4.22;;;;;;;8.62;70.61;99752.81;5057213;28;20060;-76
2021/01/03 06:05:00;;;;;;;8.77;4.05;;;;;;;8.64;71.45;99753.28;5056198;28;20116;-77
2021/01/03 06:07:28;;;;;;;3.45;2.55;;;;;;;8.51;70.89;99754.53;5057121;28;20025;-77
2021/01/03 06:09:53;;;;;;;3.10;2.60;;;;;;;8.51;71.24;99754.53;5058425;28;20033;-77
2021/01/03 06:12:25;;;;;;;7.20;3.33;;;;;;;8.44;71.35;99755.19;5058241;28;20030;-77
2021/01/03 06:14:54;;;;;;;3.90;2.53;;;;;;;8.35;72.97;99760.88;5056485;28;20407;-76
2021/01/03 06:17:35;;;;;;;3.53;2.50;;;;;;;8.26;73.18;99765.81;5057262;28;20030;-77
2021/01/03 06:20:24;;;;;;;4.78;2.70;;;;;;;8.19;72.93;99762.03;5056535;28;20029;-76
2021/01/03 06:22:53;;;;;;;2.92;2.20;;;;;;;8.12;72.65;99759.88;5041582;28;20029;-77
2021/01/03 06:25:34;;;;;;;7.47;2.83;;;;;;;8.25;74.18;99763.38;5057150;28;20033;-77
2021/01/03 06:28:10;;;;;;;3.67;2.78;;;;;;;8.11;74.36;99764.63;5057261;28;20452;-78
2021/01/03 06:30:41;;;;;;;16.33;6.80;;;;;;;8.05;75.33;99763.28;5057393;28;20025;-78
2021/01/03 06:33:43;;;;;;;51.00;21.63;;;;;;;7.83;75.30;99737.00;5057467;28;20048;-77
2021/01/03 06:36:40;;;;;;;121.43;51.88;;;;;;;8.01;75.27;99767.91;5057495;28;20032;-77
2021/01/03 06:39:44;;;;;;;87.40;38.80;;;;;;;7.97;76.32;99763.44;5037557;28;20504;-77
2021/01/03 06:42:44;;;;;;;78.07;35.75;;;;;;;7.93;76.40;99765.31;5057692;28;20026;-79
2021/01/03 06:45:47;;;;;;;60.80;29.25;;;;;;;7.83;75.37;99764.69;5057645;28;20040;-79
2021/01/03 06:48:47;;;;;;;44.80;21.77;;;;;;;7.73;76.38;99748.59;5057172;28;20021;-79
2021/01/03 06:51:39;;;;;;;44.70;22.38;;;;;;;7.92;76.71;99794.16;5055730;28;20033;-78
2021/01/03 06:54:43;;;;;;;21.05;12.30;;;;;;;8.02;75.88;99790.88;5057199;28;20025;-78
2021/01/03 06:57:31;;;;;;;12.23;6.45;;;;;;;7.88;75.86;99800.44;5057691;28;20053;-78
2021/01/03 07:00:12;;;;;;;16.77;6.78;;;;;;;7.84;76.94;99799.53;5060164;28;20087;-79
2021/01/03 07:03:03;;;;;;;7.95;4.28;;;;;;;7.95;76.44;99796.25;5058281;28;20034;-79
2021/01/03 07:05:29;;;;;;;14.35;3.65;;;;;;;8.23;76.48;99797.00;5054328;28;20021;-79
2021/01/03 07:08:07;;;;;;;7.70;1.52;;;;;;;8.46;75.83;99807.50;5051439;28;20124;-79
2021/01/03 07:10:39;;;;;;;10.82;1.58;;;;;;;8.40;75.94;99809.72;5053730;28;20057;-79
2021/01/03 07:13:27;;;;;;;5.72;1.17;;;;;;;8.60;75.46;99816.97;5053398;28;20057;-78
2021/01/03 07:15:54;;;;;;;7.65;1.75;;;;;;;8.52;75.53;99820.75;5054681;28;20029;-79
2021/01/03 07:18:26;;;;;;;3.65;1.25;;;;;;;8.57;75.79;99814.91;5059470;28;20033;-78
2021/01/03 07:20:51;;;;;;;10.40;2.00;;;;;;;8.68;75.46;99820.72;5056301;28;20036;-72
2021/01/03 07:23:30;;;;;;;4.43;2.08;;;;;;;8.75;74.15;99820.09;5052726;28;20033;-73
2021/01/03 07:25:56;;;;;;;3.65;1.50;;;;;;;8.82;74.17;99820.28;5052845;28;20049;-73
2021/01/03 07:28:30;;;;;;;7.53;1.38;;;;;;;8.89;73.46;99821.25;5052126;28;20452;-72
2021/01/03 07:31:30;;;;;;;1.98;1.40;;;;;;;8.91;73.57;99827.25;5052418;28;20484;-73
2021/01/03 07:34:06;;;;;;;10.85;3.42;;;;;;;9.04;73.17;99829.91;5052140;28;20468;-73
2021/01/03 07:36:37;;;;;;;8.73;2.58;;;;;;;9.06;73.34;99838.69;5051926;28;20033;-72
2021/01/03 07:39:16;;;;;;;4.05;1.88;;;;;;;9.11;72.32;99843.97;5052080;28;20116;-73
2021/01/03 07:41:43;;;;;;;3.25;2.00;;;;;;;9.12;72.54;99840.00;5052550;28;20025;-72
2021/01/03 07:44:13;;;;;;;2.45;1.63;;;;;;;9.05;73.14;99831.50;5035571;28;20041;-72
2021/01/03 07:46:47;;;;;;;5.55;2.08;;;;;;;9.11;73.17;99835.63;5052393;28;20486;-73
2021/01/03 07:49:26;;;;;;;1.65;0.88;;;;;;;9.10;73.14;99839.56;5051748;28;20061;-72
2021/01/03 07:51:52;;;;;;;5.75;1.17;;;;;;;9.11;73.07;99833.66;5051789;28;20026;-72
2021/01/03 07:54:18;;;;;;;4.43;2.08;;;;;;;9.17;72.71;99845.28;5051666;28;20033;-73
2021/01/03 07:56:46;;;;;;;4.18;1.55;;;;;;;9.11;72.94;99846.72;5052277;28;20044;-73
2021/01/03 07:59:14;;;;;;;2.85;1.83;;;;;;;9.18;72.67;99858.00;5051694;28;20037;-73
2021/01/03 08:01:46;;;;;;;6.03;1.50;;;;;;;9.23;71.79;99857.72;5051477;28;20053;-72
2021/01/03 08:04:24;;;;;;;6.47;4.82;;;;;;;9.22;72.18;99856.09;5051882;28;20103;-72
2021/01/03 08:06:50;;;;;;;10.10;5.30;;;;;;;9.14;71.80;99860.69;5064863;28;20032;-78
2021/01/03 08:09:24;;;;;;;31.20;19.90;;;;;;;8.76;72.54;99866.91;5063404;28;20391;-80
2021/01/03 08:11:51;;;;;;;;;;;;;;;8.56;73.14;99863.22;5060351;28;20029;-79
2021/01/03 08:14:27;;;;;;;10.38;6.03;;;;;;;8.27;74.52;99867.19;5062320;28;20371;-81
2021/01/03 08:16:59;;;;;;;8.85;5.22;;;;;;;8.00;75.21;99834.78;5061226;28;20025;-79
2021/01/03 08:19:25;;;;;;;14.07;9.88;;;;;;;8.08;76.44;99867.84;5072200;28;20029;-80
2021/01/03 08:22:00;;;;;;;15.15;12.52;;;;;;;8.07;75.88;99879.28;5092167;28;20100;-79
2021/01/03 08:24:29;;;;;;;6.85;5.60;;;;;;;8.12;76.24;99871.53;5071074;28;20009;-81
2021/01/03 08:26:57;;;;;;;7.13;6.13;;;;;;;8.20;76.18;99878.06;5073071;28;20029;-80
2021/01/03 08:29:23;;;;;;;7.65;5.57;;;;;;;8.23;76.32;99873.78;5169222;22;20079;-79
2021/01/03 08:31:57;;;;;;;9.05;6.03;;;;;;;8.41;75.92;99875.09;5114253;28;20017;-79
2021/01/03 08:34:35;;;;;;;8.85;5.97;;;;;;;8.44;76.02;99882.72;5099545;28;20023;-81
2021/01/03 08:37:12;;;;;;;7.85;5.75;;;;;;;8.55;75.39;99883.00;5098917;28;20023;-79
2021/01/03 08:39:38;;;;;;;9.35;6.57;;;;;;;8.54;75.97;99876.63;5095740;28;20023;-80
2021/01/03 08:42:08;;;;;;;8.23;5.97;;;;;;;8.61;75.59;99893.47;5099323;28;20016;-80
2021/01/03 08:44:44;;;;;;;9.85;6.53;;;;;;;8.64;75.21;99887.22;5098403;28;20017;-77
2021/01/03 08:47:16;;;;;;;10.60;6.93;;;;;;;8.98;75.07;99881.28;5098954;28;20039;-82
2021/01/03 08:49:45;;;;;;;13.38;8.38;;;;;;;9.12;73.20;99878.88;5098207;28;20029;-82
2021/01/03 08:52:19;;;;;;;12.55;9.15;;;;;;;9.10;72.73;99881.19;5096667;28;20020;-79
2021/01/03 08:54:46;;;;;;;16.90;9.25;;;;;;;9.19;71.76;99879.03;5095694;28;20086;-83
2021/01/03 08:57:27;;;;;;;8.30;6.15;;;;;;;9.31;71.27;99875.31;5093392;28;20024;-79
2021/01/03 08:59:57;;;;;;;11.27;7.07;;;;;;;9.49;71.79;99875.75;5094207;28;20028;-80
2021/01/03 09:02:34;;;;;;;7.78;5.55;;;;;;;9.63;71.84;99884.38;5093493;28;20055;-80
2021/01/03 09:05:07;;;;;;;13.65;10.18;;;;;;;9.55;70.64;99879.84;5088424;28;20033;-80
2021/01/03 09:07:39;;;;;;;13.70;8.65;;;;;;;9.44;70.62;99868.50;5085845;28;20032;-81
2021/01/03 09:10:07;;;;;;;15.48;10.48;;;;;;;9.38;70.85;99867.97;5087687;28;20070;-79
2021/01/03 09:12:43;;;;;;;17.13;8.93;;;;;;;9.50;71.59;99874.56;5091057;28;20042;-80
2021/01/03 09:15:17;;;;;;;12.40;8.35;;;;;;;9.58;71.93;99879.91;5090868;28;20447;-80
2021/01/03 09:17:47;;;;;;;44.40;28.73;;;;;;;9.66;70.73;99878.09;5086968;28;20027;-81
2021/01/03 09:20:29;;;;;;;18.15;12.48;;;;;;;10.23;68.80;99866.19;5092269;28;20028;-82
2021/01/03 09:23:07;;;;;;;12.98;7.43;;;;;;;10.61;66.88;99869.28;5090863;28;20032;-81
2021/01/03 09:25:36;;;;;;;8.48;5.72;;;;;;;10.90;65.45;99851.84;5093503;28;20008;-78
2021/01/03 09:28:19;;;;;;;12.57;8.35;;;;;;;10.63;66.87;99855.78;5091163;28;20090;-80
2021/01/03 09:30:45;;;;;;;11.47;6.80;;;;;;;10.44;66.47;99848.31;5085432;28;20366;-79
2021/01/03 09:33:19;;;;;;;11.10;8.50;;;;;;;10.08;68.65;99838.47;5105956;28;20281;-77
2021/01/03 09:35:48;;;;;;;12.32;9.18;;;;;;;9.86;69.91;99843.59;5109649;28;20095;-81
2021/01/03 09:38:35;;;;;;;12.13;8.60;;;;;;;9.86;70.10;99851.13;5112501;28;20032;-80
2021/01/03 09:41:39;;;;;;;12.40;10.23;;;;;;;9.75;71.72;99850.91;5111676;28;20024;-80
2021/01/03 09:44:22;;;;;;;12.88;9.52;;;;;;;9.69;72.09;99863.47;5085589;28;20027;-77
2021/01/03 09:47:00;;;;;;;17.00;10.40;;;;;;;9.67;73.33;99866.63;5105011;28;20020;-81
2021/01/03 09:49:37;;;;;;;18.80;12.25;;;;;;;9.53;74.09;99876.59;5089469;28;20123;-81
2021/01/03 09:52:19;;;;;;;10.02;6.55;;;;;;;9.42;73.04;99899.38;5096904;28;20012;-79
2021/01/03 09:55:03;;;;;;;10.20;7.15;;;;;;;9.35;74.07;99902.00;5094821;28;20036;-80
2021/01/03 09:57:43;;;;;;;5.97;3.78;;;;;;;9.35;75.76;99890.91;5105842;28;20024;-76
2021/01/03 10:00:16;;;;;;;7.15;4.22;;;;;;;9.44;75.97;99883.19;5108863;28;20063;-81
2021/01/03 10:02:41;;;;;;;8.70;3.53;;;;;;;9.51;75.95;99878.97;5094713;28;20026;-78
2021/01/03 10:05:26;;;;;;;6.53;2.97;;;;;;;9.43;75.67;99884.34;5111642;28;20035;-80
2021/01/03 10:08:07;;;;;;;2.95;2.30;;;;;;;9.47;76.46;99867.75;5094403;28;20051;-80
2021/01/03 10:10:51;;;;;;;9.25;4.05;;;;;;;9.38;76.33;99872.72;5095072;28;20032;-81
2021/01/03 10:13:21;;;;;;;4.32;2.47;;;;;;;9.43;76.64;99878.81;5094936;28;20028;-79
2021/01/03 10:15:51;;;;;;;4.65;1.90;;;;;;;9.43;76.69;99881.59;5096180;28;20028;-81
2021/01/03 10:18:39;;;;;;;4.55;2.00;;;;;;;9.43;76.52;99878.81;5098634;28;20091;-80
2021/01/03 10:21:26;;;;;;;3.85;1.88;;;;;;;9.42;74.10;99866.06;5097822;28;20024;-81
2021/01/03 10:24:21;;;;;;;3.05;2.67;;;;;;;9.49;74.08;99872.97;5115118;28;20031;-81
2021/01/03 10:27:02;;;;;;;8.15;4.85;;;;;;;9.34;73.19;99839.31;5096051;28;20053;-81
2021/01/03 10:29:28;;;;;;;14.50;7.97;;;;;;;9.47;73.93;99872.50;5114391;28;20056;-78
2021/01/03 10:31:54;;;;;;;17.85;10.60;;;;;;;9.48;74.77;99863.84;5097921;28;20063;-81
2021/01/03 10:34:20;;;;;;;27.60;14.15;;;;;;;9.49;74.43;99872.97;5098959;28;20019;-82
2021/01/03 10:36:47;;;;;;;18.70;13.80;;;;;;;9.39;74.99;99872.34;5098029;28;20051;-75
2021/01/03 10:39:14;;;;;;;31.55;22.70;;;;;;;9.36;75.49;99872.28;5098857;28;20100;-81
2021/01/03 10:41:39;;;;;;;36.60;24.70;;;;;;;9.27;75.42;99866.94;5099697;28;20012;-79
2021/01/03 10:44:09;;;;;;;21.52;16.88;;;;;;;9.00;76.98;99871.47;5117273;28;20032;-81
2021/01/03 10:46:39;;;;;;;25.05;16.90;;;;;;;9.01;76.31;99867.50;5100394;28;20028;-79
2021/01/03 10:49:05;;;;;;;26.10;17.63;;;;;;;8.74;77.16;99874.78;5098998;28;20012;-80
2021/01/03 10:51:43;;;;;;;16.35;12.50;;;;;;;8.58;77.28;99844.28;5096803;28;20466;-79
2021/01/03 10:54:15;;;;;;;22.52;15.60;;;;;;;8.39;78.08;99852.47;5100496;28;20016;-79
2021/01/03 10:56:49;;;;;;;18.40;12.77;;;;;;;8.15;78.64;99847.88;5104210;28;20119;-80
2021/01/03 10:59:18;;;;;;;15.32;12.23;;;;;;;8.16;79.50;99832.03;5104073;28;20028;-81
2021/01/03 11:01:45;;;;;;;19.45;14.95;;;;;;;8.20;77.88;99828.19;5104166;28;20036;-80
2021/01/03 11:04:22;;;;;;;20.40;16.00;;;;;;;8.17;79.60;99812.28;5100422;28;20024;-77
2021/01/03 11:06:51;;;;;;;19.75;16.10;;;;;;;8.10;80.42;99812.91;5103785;28;20032;-80
2021/01/03 11:09:20;;;;;;;14.63;10.10;;;;;;;7.92;79.92;99805.25;5103865;28;20068;-80
2021/01/03 11:11:50;;;;;;;19.80;14.63;;;;;;;7.99;80.30;99810.97;5103048;28;20032;-81
2021/01/03 11:14:23;;;;;;;28.90;19.60;;;;;;;8.09;79.07;99804.91;5119592;28;20074;-81
2021/01/03 11:16:51;;;;;;;39.22;26.60;;;;;;;8.06;80.84;99811.19;5097467;28;20079;-80
2021/01/03 11:19:22;;;;;;;27.48;23.25;;;;;;;8.15;81.43;99814.59;5115110;28;20024;-81
2021/01/03 11:21:56;;;;;;;25.65;20.17;;;;;;;8.12;81.29;99809.75;5093935;28;20036;-80
2021/01/03 11:24:25;;;;;;;29.98;21.90;;;;;;;8.30;81.44;99811.03;5098249;28;20020;-80
2021/01/03 11:26:56;;;;;;;21.88;14.68;;;;;;;8.54;78.93;99803.75;5098975;28;20024;-81
2021/01/03 11:29:24;;;;;;;14.82;11.00;;;;;;;8.69;77.80;99802.94;5094954;28;20048;-81
2021/01/03 11:31:56;;;;;;;27.52;19.35;;;;;;;8.73;77.17;99798.25;5091803;28;20035;-80
2021/01/03 11:34:26;;;;;;;29.60;21.00;;;;;;;8.88;77.96;99802.97;5094412;28;20020;-80
2021/01/03 11:36:56;;;;;;;17.23;14.27;;;;;;;8.80;76.15;99805.97;5075766;28;20052;-81
2021/01/03 11:39:23;;;;;;;23.92;16.40;;;;;;;8.80;77.21;99801.22;5094563;28;20036;-79
2021/01/03 11:41:50;;;;;;;37.55;25.00;;;;;;;9.07;76.65;99804.22;5095825;28;20055;-82
2021/01/03 11:44:18;;;;;;;26.17;19.45;;;;;;;8.82;77.31;99812.75;5094865;28;20036;-81
2021/01/03 11:46:43;;;;;;;24.50;15.23;;;;;;;8.78;77.08;99809.06;5095026;28;20032;-78
2021/01/03 11:49:09;;;;;;;23.85;16.85;;;;;;;8.65;78.51;99793.72;5115286;28;20029;-80
2021/01/03 11:51:38;;;;;;;49.63;35.22;;;;;;;8.66;77.84;99792.53;5096033;28;20029;-81
2021/01/03 11:54:04;;;;;;;30.98;21.83;;;;;;;8.66;78.50;99796.13;5093796;28;20025;-80
2021/01/03 11:56:33;;;;;;;22.70;15.35;;;;;;;8.68;77.13;99795.75;5094104;28;20028;-80
2021/01/03 11:59:03;;;;;;;14.63;11.55;;;;;;;8.59;77.06;99786.84;5092818;28;20040;-81
2021/01/03 12:01:31;;;;;;;26.58;17.80;;;;;;;8.79;77.49;99776.59;5096032;28;20013;-81
2021/01/03 12:04:01;;;;;;;41.00;27.25;;;;;;;8.85;76.25;99764.88;5096205;28;20033;-81